• Join FlightAware (Why Join?)
  • Login
  • US Flag 
05:46PM EDT


 

Airport Tracker/Info


-or-


 

Live Flight TrackerFlight Track Log ✈ VH-DYH ✈ 17-Sep-2013 ✈ YIVL / IVR - YBAF

Flight Track Log - Related Links

Times and Time Zones

All times are in EDT time to prevent confusion due to time zone crossing. See the VH-DYH flight status page for this flight to view local times or setup timezone preferences in your user account.

Time Position Orientation Groundspeed Altitude Reporting Facility
EDT Latitude Longitude Course Direction KTS MPH feet Rate Location/Type
08:39PM -29.7169 151.3108 200° South 7,000  Level Aus ATC (Calculated)
08:40PM -29.7951 151.2776 63° Northeast 121 139 5,800 -780 Descending Aus ATC (RADAR)
08:41PM -29.7861 151.2978 63° Northeast 123 142 5,900 420 Climbing Aus ATC (RADAR)
08:42PM -29.7714 151.3281 61° Northeast 129 148 6,400 540 Climbing Aus ATC (RADAR)
08:42PM -29.7645 151.3432 62° Northeast 129 148 6,600 360 Climbing Aus ATC (RADAR)
08:43PM -29.7448 151.3837 61° Northeast 125 144 7,000 240 Climbing Aus ATC (RADAR)
08:43PM -29.7397 151.3926 56° Northeast 127 146 7,000  Level Aus ATC (RADAR)
08:44PM -29.7239 151.4173 54° Northeast 140 161 7,000  Level Aus ATC (RADAR)
08:45PM -29.7020 151.4451 48° Northeast 154 177 7,000  Level Aus ATC (RADAR)
08:45PM -29.6816 151.4567 26° Northeast 144 166 7,000  Level Aus ATC (RADAR)
08:46PM -29.6513 151.4748 27° Northeast 146 168 7,000  Level Aus ATC (RADAR)
08:47PM -29.6358 151.4849 29° Northeast 151 174 7,000  Level Aus ATC (RADAR)
08:47PM -29.6120 151.4991 27° Northeast 147 169 7,000  Level Aus ATC (RADAR)
08:48PM -29.5784 151.5198 28° Northeast 151 174 7,000 60 Level Aus ATC (RADAR)
08:49PM -29.5626 151.5289 26° Northeast 153 176 7,100 60 Climbing Aus ATC (RADAR)
08:49PM -29.5389 151.5446 30° Northeast 147 169 7,100  Level Aus ATC (RADAR)
08:50PM -29.5187 151.5578 30° Northeast 144 166 7,100  Level Aus ATC (RADAR)
08:50PM -29.4947 151.5745 31° Northeast 150 173 7,100  Level Aus ATC (RADAR)
08:52PM -29.4581 151.6038 35° Northeast 148 170 7,100  Level Aus ATC (RADAR)
08:52PM -29.4463 151.6139 37° Northeast 154 177 7,100  Level Aus ATC (RADAR)
08:52PM -29.4272 151.6314 39° Northeast 151 174 7,100 -60 Level Aus ATC (RADAR)
08:54PM -29.3910 151.6689 42° Northeast 152 175 7,000  Descending Aus ATC (RADAR)
08:54PM -29.3751 151.6857 43° Northeast 155 178 7,100 60 Climbing Aus ATC (RADAR)
08:55PM -29.3566 151.7037 40° Northeast 152 175 7,100 -120 Level Aus ATC (RADAR)
08:55PM -29.3362 151.7241 41° Northeast 148 170 7,000  Descending Aus ATC (RADAR)
08:56PM -29.3163 151.7404 36° Northeast 151 174 7,100 60 Climbing Aus ATC (RADAR)
08:57PM -29.2928 151.7685 46° Northeast 146 168 7,100  Level Aus ATC (RADAR)
08:57PM -29.2829 151.7824 51° Northeast 139 160 7,100  Level Aus ATC (RADAR)
08:58PM -29.2650 151.8200 61° Northeast 136 157 7,100  Level Aus ATC (RADAR)
08:59PM -29.2538 151.8388 56° Northeast 142 163 7,100  Level Aus ATC (RADAR)
08:59PM -29.2434 151.8549 54° Northeast 147 169 7,100  Level Aus ATC (RADAR)
09:00PM -29.2260 151.8812 53° Northeast 154 177 7,100  Level Aus ATC (RADAR)
09:01PM -29.2049 151.9094 49° Northeast 157 181 7,100 -120 Level Aus ATC (RADAR)
09:01PM -29.1866 151.9306 45° Northeast 160 184 7,000 -120 Descending Aus ATC (RADAR)
09:02PM -29.1578 151.9618 43° Northeast 158 182 7,000  Level Aus ATC (RADAR)
09:02PM -29.1498 151.9696 40° Northeast 156 180 7,000  Level Aus ATC (RADAR)
09:03PM -29.1163 152.0029 41° Northeast 147 169 7,000 60 Level Aus ATC (RADAR)
09:04PM -29.1036 152.0172 44° Northeast 150 173 7,100  Climbing Aus ATC (RADAR)
09:04PM -29.0905 152.0307 42° Northeast 152 175 7,000  Descending Aus ATC (RADAR)
09:05PM -29.0684 152.0518 40° Northeast 155 178 7,100 60 Climbing Aus ATC (RADAR)
09:06PM -29.0427 152.0741 37° Northeast 155 178 7,100 -120 Level Aus ATC (RADAR)
09:06PM -29.0233 152.0875 31° Northeast 145 167 7,000  Descending Aus ATC (RADAR)
09:07PM -28.9940 152.1050 28° Northeast 143 165 7,100  Climbing Aus ATC (RADAR)
09:07PM -28.9800 152.1136 28° Northeast 140 161 7,000 -60 Descending Aus ATC (RADAR)
09:09PM -28.9362 152.1356 24° Northeast 138 159 7,000 60 Level Aus ATC (RADAR)
09:09PM -28.9221 152.1407 18° North 133 153 7,100 60 Climbing Aus ATC (RADAR)
09:10PM -28.9013 152.1514 24° Northeast 140 161 7,100  Level Aus ATC (RADAR)
09:11PM -28.8692 152.1704 27° Northeast 142 163 7,100  Level Aus ATC (RADAR)
09:11PM -28.8504 152.1870 38° Northeast 144 166 7,100  Level Aus ATC (RADAR)
09:12PM -28.8251 152.2160 45° Northeast 154 177 7,100 -120 Level Aus ATC (RADAR)
09:13PM -28.8045 152.2388 44° Northeast 155 178 7,000  Descending Aus ATC (RADAR)
09:14PM -28.7730 152.2900 55° Northeast 136 157 7,100  Climbing Aus ATC (RADAR)
09:15PM -28.7639 152.3050 55° Northeast 136 157 7,100  Level Aus ATC (RADAR)
09:15PM -28.7489 152.3271 52° Northeast 131 151 7,100  Level Aus ATC (RADAR)
09:16PM -28.7365 152.3440 50° Northeast 121 139 7,100  Level Aus ATC (RADAR)
09:16PM -28.7244 152.3588 47° Northeast 112 129 7,100  Level Aus ATC (RADAR)
09:17PM -28.7042 152.3807 44° Northeast 123 142 7,100  Level Aus ATC (RADAR)
09:18PM -28.6911 152.3903 33° Northeast 132 152 7,100  Level Aus ATC (RADAR)
09:19PM -28.6497 152.4140 27° Northeast 146 168 7,100  Level Aus ATC (RADAR)
09:19PM -28.6407 152.4196 28° Northeast 147 169 7,100 -120 Level Aus ATC (RADAR)
09:20PM -28.6159 152.4318 23° Northeast 146 168 7,000 -120 Descending Aus ATC (RADAR)
09:21PM -28.5841 152.4466 22° Northeast 149 171 7,000  Level Aus ATC (RADAR)
09:21PM -28.5607 152.4663 37° Northeast 155 178 7,000  Level Aus ATC (RADAR)
09:22PM -28.5335 152.4904 38° Northeast 165 190 7,000  Level Aus ATC (RADAR)
09:22PM -28.5188 152.5056 42° Northeast 168 193 7,000  Level Aus ATC (RADAR)
09:23PM -28.4954 152.5290 41° Northeast 166 191 7,000  Level Aus ATC (RADAR)
09:24PM -28.4549 152.5694 41° Northeast 168 193 7,000  Level Aus ATC (RADAR)
09:25PM -28.4372 152.5863 40° Northeast 166 191 7,000  Level Aus ATC (RADAR)
09:25PM -28.4170 152.6059 40° Northeast 165 190 7,000 60 Level Aus ATC (RADAR)
09:26PM -28.3972 152.6248 40° Northeast 161 185 7,100 60 Climbing Aus ATC (RADAR)
09:26PM -28.3776 152.6439 41° Northeast 158 182 7,100  Level Aus ATC (RADAR)
09:27PM -28.3500 152.6711 41° Northeast 157 181 7,100 -120 Level Aus ATC (RADAR)
09:28PM -28.3365 152.6843 41° Northeast 155 178 7,000  Descending Aus ATC (RADAR)
09:28PM -28.3216 152.6992 41° Northeast 146 168 7,100  Climbing Aus ATC (RADAR)
09:30PM -28.2845 152.7352 41° Northeast 127 146 7,100  Level Aus ATC (RADAR)
09:30PM -28.2748 152.7443 40° Northeast 132 152 7,100 -120 Level Aus ATC (RADAR)
09:30PM -28.2565 152.7615 40° Northeast 145 167 7,000  Descending Aus ATC (RADAR)
09:31PM -28.2327 152.7844 40° Northeast 151 174 7,100 60 Climbing Aus ATC (RADAR)
09:32PM -28.2137 152.8037 42° Northeast 156 180 7,100  Level Aus ATC (RADAR)
09:33PM -28.1892 152.8276 41° Northeast 153 176 7,100  Level Aus ATC (RADAR)
09:33PM -28.1729 152.8436 41° Northeast 154 177 7,100 -60 Level Aus ATC (RADAR)
09:34PM -28.1313 152.8839 41° Northeast 157 181 7,000 -60 Descending Aus ATC (RADAR)
09:35PM -28.1118 152.9029 41° Northeast 157 181 7,000  Level Aus ATC (RADAR)
09:35PM -28.1007 152.9137 41° Northeast 158 182 7,000  Level Aus ATC (RADAR)
09:36PM -28.0785 152.9216 17° North 145 167 7,000 -300 Level Aus ATC (RADAR)
09:37PM -28.0470 152.9284 11° North 155 178 6,600 -540 Descending Aus ATC (RADAR)
09:37PM -28.0211 152.9364 15° North 165 190 6,300 -480 Descending Aus ATC (RADAR)
09:38PM -27.9810 152.9501 17° North 165 190 5,900 -540 Descending Aus ATC (RADAR)
09:38PM -27.9662 152.9550 16° North 166 191 5,700 -600 Descending Aus ATC (RADAR)
09:40PM -27.9075 152.9743 16° North 167 192 5,000 -540 Descending Aus ATC (RADAR)
09:40PM -27.8888 152.9807 17° North 169 194 4,800 -480 Descending Aus ATC (RADAR)
09:41PM -27.8664 152.9883 17° North 168 193 4,600 -480 Descending Aus ATC (RADAR)
09:41PM -27.8324 152.9994 16° North 169 194 4,200 -540 Descending Aus ATC (RADAR)
09:42PM -27.8025 153.0098 17° North 171 197 3,900 -480 Descending Aus ATC (RADAR)
09:43PM -27.7694 153.0207 16° North 166 191 3,600 -480 Descending Aus ATC (RADAR)
09:43PM -27.7515 153.0266 16° North 162 186 3,400 -420 Descending Aus ATC (RADAR)
09:44PM -27.6930 153.0461 16° North 164 189 2,900 -480 Descending Aus ATC (RADAR)
09:45PM -27.6646 153.0493 North 158 182 2,500 -720 Descending Aus ATC (RADAR)
09:45PM -27.6494 153.0498 North 162 186 2,200 -660 Descending Aus ATC (RADAR)
09:46PM -27.6239 153.0544 North 159 183 1,900 -540 Descending Aus ATC (RADAR)
09:47PM -27.5992 153.0602 12° North 156 180 1,600 -540 Descending Aus ATC (RADAR)
09:47PM -27.5857 153.0493 324° Northwest 122 140 1,300 -720 Descending Aus ATC (RADAR)
09:48PM -27.5783 153.0249 289° West 103 119 600 -900 Descending Aus ATC (RADAR)
09:48PM -27.5751 153.0121 286° West 103 119 200 -1,020 Descending Aus ATC (RADAR)